Flight Track Log - Related Links

Times and Time Zones

All times are in EDT time to prevent confusion due to time zone crossing. See the SKW5631 flight status page for this flight to view local times or setup timezone preferences in your user account.

Time Position Orientation Groundspeed Altitude Reporting Facility
EDT Latitude Longitude Course Direction KTS MPH feet Rate Location/Type
Sat 09:23:50 PM 39.9667 -104.6833 11° North 231 266 7,800  Level Denver TRACON
Sat 09:24:50 PM 40.0333 -104.6667 11° North 279 321 9,300 1,684 Climbing Denver TRACON
Sat 09:25:44 PM 40.1000 -104.6667 360° North 296 341 11,000 1,784 Climbing Denver TRACON
Sat 09:26:04 PM 40.1325 -104.6778 345° North 304 350 11,500 2,049 Climbing Denver Center
Sat 09:27:06 PM 40.2228 -104.7025 348° North 310 357 13,800 1,805 Climbing Denver Center
Sat 09:28:07 PM 40.3164 -104.7269 349° North 344 396 15,200 1,512 Climbing Denver Center
Sat 09:29:09 PM 40.4119 -104.7519 349° North 351 404 16,900 1,610 Climbing Denver Center
Sat 09:30:10 PM 40.5178 -104.7800 349° North 358 412 18,500 1,366 Climbing Denver Center
Sat 09:31:12 PM 40.6169 -104.8072 348° North 363 418 19,700 1,171 Climbing Denver Center
Sat 09:32:13 PM 40.7197 -104.8331 349° North 377 434 20,900 1,171 Climbing Denver Center
Sat 09:33:15 PM 40.8272 -104.8700 345° North 370 426 22,100 1,171 Climbing Denver Center
Sat 09:34:16 PM 40.9286 -104.9197 340° North 384 442 23,300 976 Climbing Denver Center
Sat 09:35:18 PM 41.0233 -104.9675 339° North 387 445 24,100 927 Climbing Denver Center
Sat 09:36:19 PM 41.1381 -105.0231 340° North 393 452 25,200 787 Climbing Denver Center
Sat 09:37:20 PM 41.2375 -105.0722 340° North 396 456 25,700 537 Climbing Denver Center
Sat 09:38:22 PM 41.3222 -105.1653 320° Northwest 411 473 26,300 878 Climbing Denver Center
Sat 09:39:23 PM 41.4192 -105.2711 321° Northwest 405 466 27,500 1,122 Climbing Denver Center
Sat 09:40:25 PM 41.4997 -105.3650 319° Northwest 402 463 28,600 1,122 Climbing Denver Center
Sat 09:41:26 PM 41.5914 -105.4689 320° Northwest 390 449 29,800 1,073 Climbing Denver Center
Sat 09:42:28 PM 41.6681 -105.5564 320° Northwest 381 438 30,800 878 Climbing Denver Center
Sat 09:43:29 PM 41.7444 -105.6431 320° Northwest 376 433 31,600 590 Climbing Denver Center
Sat 09:44:30 PM 41.8331 -105.7444 320° Northwest 375 432 32,000 195 Climbing Denver Center
Sat 09:45:32 PM 41.9111 -105.8342 319° Northwest 383 441 32,000  Level Denver Center
Sat 09:46:33 PM 42.0047 -105.9417 320° Northwest 393 452 32,000  Level Denver Center
Sat 09:47:34 PM 42.0847 -106.0339 319° Northwest 395 455 32,000  Level Denver Center
Sat 09:48:36 PM 42.1631 -106.1269 319° Northwest 394 453 32,000  Level Denver Center
Sat 09:49:37 PM 42.2606 -106.2392 320° Northwest 407 468 32,000  Level Denver Center
Sat 09:50:38 PM 42.3439 -106.3356 319° Northwest 411 473 32,000  Level Denver Center
Sat 09:51:39 PM 42.4233 -106.4331 318° Northwest 408 470 32,000  Level Denver Center
Sat 09:52:41 PM 42.5183 -106.5447 319° Northwest 406 467 32,000  Level Denver Center
Sat 09:53:42 PM 42.5997 -106.6400 319° Northwest 403 464 32,000  Level Denver Center
Sat 09:54:43 PM 42.6944 -106.7522 319° Northwest 404 465 32,000  Level Denver Center
Sat 09:55:44 PM 42.7747 -106.8469 319° Northwest 400 460 32,000  Level Denver Center
Sat 09:56:46 PM 42.8550 -106.9431 319° Northwest 401 461 32,000  Level Denver Center
Sat 09:57:47 PM 42.9469 -107.0539 319° Northwest 397 457 32,000  Level Denver Center
Sat 09:58:48 PM 43.0258 -107.1492 319° Northwest 396 456 32,000  Level Denver Center
Sat 09:59:49 PM 43.1061 -107.2469 318° Northwest 399 459 32,000  Level Denver Center
Sat 10:00:51 PM 43.1967 -107.3564 319° Northwest 392 451 32,000  Level Denver Center
Sat 10:01:42 PM 43.2622 -107.4369 318° Northwest 400 460 32,000  Level Salt Lake Center
Sat 10:02:43 PM 43.3414 -107.5375 317° Northwest 403 464 32,000  Level Salt Lake Center
Sat 10:03:44 PM 43.4328 -107.6500 318° Northwest 396 456 32,000 -393 Level Salt Lake Center
Sat 10:04:45 PM 43.5125 -107.7478 318° Northwest 401 461 31,200 -1,512 Descending Salt Lake Center
Sat 10:05:47 PM 43.5919 -107.8472 318° Northwest 402 463 28,900 -2,361 Descending Salt Lake Center
Sat 10:06:47 PM 43.6806 -107.9567 318° Northwest 384 442 26,400 -2,380 Descending Salt Lake Center
Sat 10:07:48 PM 43.7539 -108.0486 318° Northwest 375 432 24,100 -2,390 Descending Salt Lake Center
Sat 10:08:50 PM 43.8375 -108.1522 318° Northwest 363 418 21,500 -2,439 Descending Salt Lake Center
Sat 10:09:51 PM 43.9069 -108.2414 317° Northwest 357 411 19,100 -2,262 Descending Salt Lake Center
Sat 10:10:52 PM 43.9719 -108.3250 317° Northwest 345 397 16,900 -1,967 Descending Salt Lake Center
Sat 10:11:53 PM 44.0433 -108.4161 317° Northwest 329 379 15,100 -1,574 Descending Salt Lake Center
Sat 10:12:54 PM 44.1017 -108.4856 319° Northwest 309 356 13,700 -1,230 Descending Salt Lake Center
Sat 10:13:55 PM 44.1811 -108.5203 343° North 312 359 12,600 -836 Descending Salt Lake Center
Sat 10:14:56 PM 44.2686 -108.5644 340° North 307 353 12,000 -295 Descending Salt Lake Center
Sat 10:15:57 PM 44.3400 -108.6011 340° North 297 342 12,000  Level Salt Lake Center
Sat 10:16:58 PM 44.4092 -108.6367 340° North 286 329 12,000  Level Salt Lake Center
Sat 10:17:59 PM 44.4964 -108.6764 342° North 288 331 12,000 -537 Level Salt Lake Center
Sat 10:19:01 PM 44.5742 -108.6833 356° North 290 334 10,900 -1,220 Descending Salt Lake Center
Sat 10:20:02 PM 44.6347 -108.7314 331° Northwest 273 314 9,500 -1,475 Descending Salt Lake Center
Sat 10:21:03 PM 44.6339 -108.8231 269° West 243 280 7,900 -984 Descending Salt Lake Center
Sat 10:22:04 PM 44.6044 -108.8761 232° Southwest 204 235 7,500 -541 Descending Salt Lake Center
Sat 10:23:05 PM 44.5781 -108.9231 232° Southwest 159 183 6,800 -689 Descending Salt Lake Center
Sat 10:24:06 PM 44.5564 -108.9631 233° Southwest 143 165 6,100 -590 Descending Salt Lake Center
Sat 10:25:07 PM 44.5328 -109.0056 232° Southwest 142 163 5,600 -492 Descending Salt Lake Center
Sat 10:27:00 PM 44.5167 -109.0167 245° Southwest  Level FlightAware Approximate

Login

Don't have an account? Register now (free) for customized features, flight alerts, and more!